createdAt,value
2022-09-27T00:02:10.916Z,16.02
2022-09-27T00:06:22.753Z,16.06
2022-09-27T00:10:25.412Z,16.01
2022-09-27T00:14:27.735Z,15.99
2022-09-27T00:18:29.964Z,15.96
2022-09-27T00:22:32.548Z,15.87
2022-09-27T00:26:34.718Z,15.93
2022-09-27T00:30:42.258Z,15.90
2022-09-27T00:34:44.412Z,15.40
2022-09-27T00:38:47.083Z,15.48
2022-09-27T00:42:49.083Z,15.61
2022-09-27T00:47:15.885Z,15.55
2022-09-27T00:51:18.031Z,15.51
2022-09-27T00:55:25.784Z,15.50
2022-09-27T00:59:33.431Z,15.53
2022-09-27T01:03:49.094Z,15.43
2022-09-27T01:07:51.748Z,15.22
2022-09-27T01:12:02.879Z,15.04
2022-09-27T01:16:15.467Z,15.04
2022-09-27T01:20:39.345Z,14.81
2022-09-27T01:24:54.937Z,14.50
2022-09-27T01:29:11.991Z,14.57
2022-09-27T01:33:49.387Z,14.48
2022-09-27T01:38:01.325Z,14.48
2022-09-27T01:42:31.870Z,14.43
2022-09-27T01:46:44.120Z,14.65
2022-09-27T01:51:04.498Z,14.75
2022-09-27T01:55:12.048Z,14.78
2022-09-27T01:59:43.316Z,14.72
2022-09-27T02:04:13.784Z,14.81
2022-09-27T02:08:52.502Z,14.67
2022-09-27T02:13:13.072Z,14.68
2022-09-27T02:18:00.551Z,14.56
2022-09-27T02:22:35.565Z,14.36
2022-09-27T02:26:43.797Z,14.29
2022-09-27T02:30:45.951Z,14.29
2022-09-27T02:34:57.772Z,14.32
2022-09-27T02:39:00.646Z,14.27
2022-09-27T02:43:08.648Z,14.28
2022-09-27T02:47:47.707Z,14.24
2022-09-27T02:52:04.884Z,14.16
2022-09-27T02:56:22.257Z,13.97
2022-09-27T03:00:56.938Z,13.87
2022-09-27T03:05:26.471Z,13.72
2022-09-27T03:09:39.789Z,13.68
2022-09-27T03:14:06.865Z,13.70
2022-09-27T03:18:06.634Z,13.60
2022-09-27T03:22:17.753Z,13.71
2022-09-27T03:26:19.735Z,13.74
2022-09-27T03:30:21.802Z,13.76
2022-09-27T03:34:23.822Z,13.76
2022-09-27T03:38:26.489Z,13.66
2022-09-27T03:42:28.540Z,13.46
2022-09-27T03:46:30.891Z,13.56
2022-09-27T03:50:33.247Z,13.56
2022-09-27T03:54:35.262Z,13.37
2022-09-27T03:58:37.312Z,13.40
2022-09-27T04:02:40.824Z,12.97
2022-09-27T04:07:12.068Z,12.82
2022-09-27T04:11:15.384Z,12.74
2022-09-27T04:15:21.255Z,12.40
2022-09-27T04:19:26.506Z,12.42
2022-09-27T04:23:39.460Z,12.28
2022-09-27T04:27:46.439Z,12.29
2022-09-27T04:31:49.448Z,12.27
2022-09-27T04:36:28.566Z,12.30
2022-09-27T04:40:37.276Z,12.37
2022-09-27T04:44:39.435Z,12.51
2022-09-27T04:48:41.849Z,12.59
2022-09-27T04:52:44.243Z,12.74
2022-09-27T04:56:46.225Z,12.86
2022-09-27T05:00:49.180Z,12.89
2022-09-27T05:05:15.984Z,13.03
2022-09-27T05:09:20.075Z,13.20
2022-09-27T05:13:24.993Z,13.38
2022-09-27T05:17:27.734Z,13.50
2022-09-27T05:21:48.832Z,13.68
2022-09-27T05:25:51.034Z,13.77
2022-09-27T05:29:54.522Z,13.90
2022-09-27T05:34:03.052Z,14.12
2022-09-27T05:38:14.176Z,14.36
2022-09-27T05:42:21.616Z,14.50
2022-09-27T05:46:25.675Z,14.48
2022-09-27T05:50:29.844Z,14.81
2022-09-27T05:54:36.360Z,15.03
2022-09-27T05:58:42.293Z,15.01
2022-09-27T06:03:02.003Z,14.77
2022-09-27T06:07:39.534Z,14.94
2022-09-27T06:11:46.603Z,15.05
2022-09-27T06:15:53.166Z,14.89
2022-09-27T06:19:55.925Z,14.82
2022-09-27T06:24:02.127Z,14.85
2022-09-27T06:28:11.909Z,14.90
2022-09-27T06:32:19.353Z,14.90
2022-09-27T06:36:33.386Z,14.96
2022-09-27T06:40:36.403Z,15.16
2022-09-27T06:45:05.065Z,15.32
2022-09-27T06:49:10.398Z,15.45
2022-09-27T06:53:15.648Z,15.33
2022-09-27T06:57:37.928Z,15.36
2022-09-27T07:01:41.285Z,15.53
2022-09-27T07:06:05.482Z,15.51
2022-09-27T07:10:19.320Z,15.56
2022-09-27T07:14:27.798Z,15.77
2022-09-27T07:18:50.859Z,15.98
2022-09-27T07:23:11.191Z,16.29
2022-09-27T07:27:16.004Z,16.62
2022-09-27T07:31:19.320Z,16.90
2022-09-27T07:35:23.998Z,17.15
2022-09-27T07:39:26.875Z,17.38
2022-09-27T07:43:29.072Z,17.59
2022-09-27T07:47:33.374Z,17.84
2022-09-27T07:51:41.276Z,18.08
2022-09-27T07:56:03.803Z,18.11
2022-09-27T08:00:12.470Z,18.03
2022-09-27T08:04:17.382Z,17.91
2022-09-27T08:08:20.368Z,17.66
2022-09-27T08:12:25.277Z,17.57
2022-09-27T08:16:28.269Z,17.52
2022-09-27T08:20:50.506Z,17.63
2022-09-27T08:25:18.251Z,17.45
2022-09-27T08:29:41.770Z,17.20
2022-09-27T08:33:44.045Z,17.10
2022-09-27T08:37:54.255Z,17.10
2022-09-27T08:42:18.818Z,16.93
2022-09-27T08:46:54.099Z,16.87
2022-09-27T08:50:57.996Z,17.05
2022-09-27T08:55:04.635Z,17.24
2022-09-27T08:59:22.516Z,17.41
2022-09-27T09:03:35.602Z,17.54
2022-09-27T09:07:53.127Z,17.92
2022-09-27T09:12:43.190Z,18.14
2022-09-27T09:17:04.926Z,18.47
2022-09-27T09:21:35.223Z,18.80
2022-09-27T09:26:10.051Z,19.13
2022-09-27T09:30:34.898Z,19.38
2022-09-27T09:34:43.452Z,19.39
2022-09-27T09:38:51.055Z,19.30
2022-09-27T09:43:02.322Z,19.47
2022-09-27T09:47:15.388Z,19.80
2022-09-27T09:51:22.827Z,19.98
2022-09-27T09:55:36.478Z,19.49
2022-09-27T09:59:45.303Z,19.73
2022-09-27T10:03:47.999Z,20.12
2022-09-27T10:07:53.073Z,20.32
2022-09-27T10:11:56.010Z,20.43
2022-09-27T10:16:09.201Z,20.22
2022-09-27T10:20:21.737Z,19.76
2022-09-27T10:24:25.570Z,19.39
2022-09-27T10:28:47.496Z,18.93
2022-09-27T10:33:07.937Z,18.36
2022-09-27T10:37:24.268Z,18.08
2022-09-27T10:41:45.545Z,18.07
2022-09-27T10:46:13.368Z,18.08
2022-09-27T10:50:45.769Z,18.34
2022-09-27T10:55:14.810Z,18.60
2022-09-27T10:59:18.818Z,19.06
2022-09-27T11:03:21.258Z,19.31
2022-09-27T11:07:23.594Z,18.94
2022-09-27T11:11:39.046Z,17.64
2022-09-27T11:16:11.157Z,17.26
2022-09-27T11:20:39.871Z,16.83
2022-09-27T11:25:26.328Z,16.80
2022-09-27T11:29:51.967Z,16.72
2022-09-27T11:34:54.251Z,16.94
2022-09-27T11:39:05.225Z,17.23
2022-09-27T11:43:20.675Z,17.36
2022-09-27T11:47:34.100Z,17.82
2022-09-27T11:51:55.174Z,17.99
2022-09-27T11:56:19.002Z,18.37
2022-09-27T12:00:24.536Z,18.70
2022-09-27T12:05:20.629Z,19.05
2022-09-27T12:09:36.408Z,19.18
2022-09-27T12:13:51.945Z,18.63
2022-09-27T12:18:00.652Z,18.13
2022-09-27T12:34:54.516Z,15.69
2022-09-27T12:39:06.246Z,15.87
2022-09-27T12:43:33.658Z,16.16
2022-09-27T12:47:59.554Z,16.41
2022-09-27T12:52:09.333Z,16.59
2022-09-27T12:56:42.608Z,16.77
2022-09-27T13:01:16.005Z,17.01
2022-09-27T13:05:39.979Z,17.19
2022-09-27T13:09:49.592Z,17.48
2022-09-27T13:14:02.385Z,17.51
2022-09-27T13:18:30.536Z,17.66
2022-09-27T13:22:43.415Z,17.85
2022-09-27T13:27:45.004Z,18.10
2022-09-27T13:32:25.132Z,18.55
2022-09-27T13:36:47.789Z,18.71
2022-09-27T13:41:17.765Z,18.73
2022-09-27T13:45:55.345Z,18.63
2022-09-27T13:50:13.932Z,18.82
2022-09-27T13:54:51.315Z,18.86
2022-09-27T13:59:06.513Z,18.77
2022-09-27T14:03:28.997Z,18.94
2022-09-27T14:07:42.562Z,18.89
2022-09-27T14:11:56.817Z,19.30
2022-09-27T14:16:05.194Z,19.52
2022-09-27T14:20:35.668Z,19.55
2022-09-27T14:24:46.319Z,19.79
2022-09-27T14:29:16.746Z,19.63
2022-09-27T14:38:37.551Z,19.90
2022-09-27T14:43:02.182Z,19.80
2022-09-27T14:47:10.078Z,19.35
2022-09-27T14:51:38.538Z,19.13
2022-09-27T14:55:45.835Z,19.00
2022-09-27T14:59:51.587Z,18.63
2022-09-27T15:03:53.781Z,18.63
2022-09-27T15:08:02.057Z,18.51
2022-09-27T15:12:05.494Z,18.58
2022-09-27T15:16:20.385Z,18.57
2022-09-27T15:20:35.302Z,18.44
2022-09-27T15:24:37.385Z,18.43
2022-09-27T15:28:44.186Z,18.43
2022-09-27T15:32:56.047Z,18.43
2022-09-27T15:37:25.733Z,18.48
2022-09-27T15:42:07.478Z,18.49
2022-09-27T15:46:26.289Z,18.56
2022-09-27T15:50:30.468Z,18.58
2022-09-27T15:54:34.991Z,18.51
2022-09-27T15:58:37.498Z,18.64
2022-09-27T16:02:40.947Z,18.45
2022-09-27T16:06:44.269Z,18.54
2022-09-27T16:10:51.669Z,18.49
2022-09-27T16:14:53.714Z,18.50
2022-09-27T16:18:56.158Z,18.39
2022-09-27T16:22:58.518Z,18.39
2022-09-27T16:27:00.635Z,18.35
2022-09-27T16:31:05.057Z,18.28
2022-09-27T16:35:07.398Z,18.17
2022-09-27T16:39:13.757Z,18.06
2022-09-27T16:43:16.672Z,17.98
2022-09-27T16:47:18.818Z,17.82
2022-09-27T16:51:40.440Z,17.61
2022-09-27T16:55:42.607Z,17.45
2022-09-27T16:59:46.289Z,17.31
2022-09-27T17:03:54.446Z,17.11
2022-09-27T17:07:59.221Z,16.99
2022-09-27T17:12:01.557Z,16.87
2022-09-27T17:16:05.465Z,16.75
2022-09-27T17:20:08.431Z,16.66
2022-09-27T17:24:11.015Z,16.56
2022-09-27T17:28:13.154Z,16.51
2022-09-27T17:32:15.323Z,16.38
2022-09-27T17:36:22.842Z,16.27
2022-09-27T17:40:26.444Z,16.18
2022-09-27T17:44:28.742Z,16.06
2022-09-27T17:48:49.360Z,15.92
2022-09-27T17:52:54.383Z,15.92
2022-09-27T17:56:58.076Z,15.78
2022-09-27T18:01:07.869Z,15.71
2022-09-27T18:05:12.818Z,15.61
2022-09-27T18:09:18.288Z,15.55
2022-09-27T18:13:22.826Z,15.57
2022-09-27T18:17:25.036Z,15.50
2022-09-27T18:21:28.417Z,15.56
2022-09-27T18:25:30.453Z,15.48
2022-09-27T18:29:36.180Z,15.48
2022-09-27T18:33:41.242Z,15.42
2022-09-27T18:37:47.844Z,15.48
2022-09-27T18:41:50.417Z,15.44
2022-09-27T18:45:53.118Z,15.50
2022-09-27T18:49:55.193Z,15.48
2022-09-27T18:54:01.331Z,15.38
2022-09-27T18:58:04.435Z,15.37
2022-09-27T19:02:10.308Z,15.40
2022-09-27T19:06:18.746Z,15.37
2022-09-27T19:10:22.165Z,15.26
2022-09-27T19:14:24.499Z,15.25
2022-09-27T19:18:34.630Z,15.27
2022-09-27T19:22:40.867Z,15.08
2022-09-27T19:26:45.553Z,15.00
2022-09-27T19:30:49.293Z,14.94
2022-09-27T19:34:55.574Z,14.94
2022-09-27T19:38:58.933Z,14.87
2022-09-27T19:43:01.778Z,14.93
2022-09-27T19:47:03.947Z,14.86
2022-09-27T19:51:06.986Z,14.79
2022-09-27T19:55:11.704Z,14.70
2022-09-27T19:59:15.863Z,14.67
2022-09-27T20:03:20.087Z,14.58
2022-09-27T20:07:24.551Z,14.54
2022-09-27T20:11:31.522Z,14.48
2022-09-27T20:15:35.160Z,14.43
2022-09-27T20:19:41.151Z,14.50
2022-09-27T20:23:52.359Z,14.56
2022-09-27T20:27:56.882Z,14.55
2022-09-27T20:32:26.123Z,14.49
2022-09-27T20:36:26.514Z,14.19
2022-09-27T20:40:29.450Z,14.15
2022-09-27T20:44:32.242Z,14.17
2022-09-27T20:48:38.927Z,14.05
2022-09-27T20:52:42.809Z,14.09
2022-09-27T20:56:49.125Z,14.11
2022-09-27T21:00:52.980Z,13.90
2022-09-27T21:04:55.996Z,13.69
2022-09-27T21:09:00.646Z,13.67
2022-09-27T21:13:02.774Z,13.62
2022-09-27T21:17:08.296Z,13.52
2022-09-27T21:21:13.177Z,13.13
2022-09-27T21:25:16.286Z,12.87
2022-09-27T21:29:18.978Z,12.83
2022-09-27T21:33:21.237Z,12.47
2022-09-27T21:37:24.269Z,12.41
2022-09-27T21:41:28.805Z,12.30
2022-09-27T21:45:32.091Z,11.94
2022-09-27T21:49:34.798Z,11.79
2022-09-27T21:53:39.773Z,11.76
2022-09-27T21:57:42.166Z,11.81
2022-09-27T22:01:45.994Z,11.69
2022-09-27T22:05:51.350Z,11.47
2022-09-27T22:09:53.956Z,11.24
2022-09-27T22:13:57.720Z,11.22
2022-09-27T22:18:01.579Z,11.24
2022-09-27T22:22:03.951Z,11.24
2022-09-27T22:26:18.552Z,11.32
2022-09-27T22:30:20.717Z,11.39
2022-09-27T22:34:29.239Z,11.42
2022-09-27T22:38:31.686Z,11.49
2022-09-27T22:42:34.131Z,11.52
2022-09-27T22:46:36.392Z,11.47
2022-09-27T22:50:39.689Z,11.53
2022-09-27T22:54:42.054Z,11.61
2022-09-27T22:58:44.636Z,11.59
2022-09-27T23:02:48.252Z,11.55
2022-09-27T23:06:50.813Z,11.31
2022-09-27T23:10:53.728Z,11.27
2022-09-27T23:14:59.450Z,11.10
2022-09-27T23:19:04.431Z,10.98
2022-09-27T23:23:15.832Z,10.99
2022-09-27T23:27:40.129Z,11.12
2022-09-27T23:31:45.100Z,11.22
2022-09-27T23:35:52.545Z,11.18
2022-09-27T23:40:00.210Z,11.15
2022-09-27T23:44:12.132Z,11.26
2022-09-27T23:48:18.916Z,11.28
2022-09-27T23:52:29.174Z,11.26
